Time;durP1;ratioP1;P1;durP2;ratioP2;P2;SDS_P1;SDS_P2;PMS_P1;PMS_P2;Temp;Humidity;BMP_temperature;BMP_pressure;BME280_temperature;BME280_humidity;BME280_pressure;Samples;Min_cycle;Max_cycle;Signal;HPM_P1;HPM_P2
2021/03/03 00:02:02;;;;;;;128.80;70.05;;;154.10;1740.80;;;;;;5074540;28;20017;-79
2021/03/03 00:04:28;;;;;;;134.52;70.40;;;154.00;1766.40;;;;;;5073138;28;20036;-81
2021/03/03 00:06:54;;;;;;;125.78;70.63;;;153.90;1766.40;;;;;;5081196;28;20059;-79
2021/03/03 00:09:20;;;;;;;132.80;70.93;;;153.80;1792.00;;;;;;5087232;28;20032;-82
2021/03/03 00:11:46;;;;;;;133.75;74.35;;;153.80;1792.00;;;;;;5091915;28;20403;-81
2021/03/03 00:14:12;;;;;;;134.73;71.30;;;153.80;1740.80;;;;;;5085306;28;20034;-75
2021/03/03 00:16:38;;;;;;;140.48;73.90;;;153.80;1715.20;;;;;;5074096;28;20024;-73
2021/03/03 00:19:04;;;;;;;159.75;80.47;;;153.80;1715.20;;;;;;5072698;28;20047;-69
2021/03/03 00:21:30;;;;;;;150.20;80.25;;;153.90;1715.20;;;;;;5074104;28;20074;-70
2021/03/03 00:23:56;;;;;;;162.77;87.68;;;153.90;1740.80;;;;;;5073340;28;20033;-70
2021/03/03 00:26:22;;;;;;;166.30;87.40;;;153.90;1715.20;;;;;;5074188;28;20461;-70
2021/03/03 00:28:48;;;;;;;182.07;94.97;;;153.90;1715.20;;;;;;5074215;28;20024;-70
2021/03/03 00:31:14;;;;;;;208.68;110.82;;;153.90;1715.20;;;;;;5073808;28;20104;-70
2021/03/03 00:33:40;;;;;;;200.40;104.28;;;153.80;1715.20;;;;;;5073804;28;20048;-81
2021/03/03 00:36:06;;;;;;;162.85;88.07;;;153.80;1715.20;;;;;;5073936;28;20377;-70
2021/03/03 00:38:32;;;;;;;155.80;82.25;;;153.90;1689.60;;;;;;5072530;28;20037;-69
2021/03/03 00:40:58;;;;;;;147.65;79.30;;;153.90;1689.60;;;;;;5073686;28;20029;-70
2021/03/03 00:43:24;;;;;;;154.50;82.93;;;153.90;1689.60;;;;;;5073720;28;20028;-70
2021/03/03 00:45:50;;;;;;;151.98;81.00;;;153.90;1689.60;;;;;;5072468;28;20032;-70
2021/03/03 00:48:16;;;;;;;145.25;78.22;;;153.90;1689.60;;;;;;5073873;28;20028;-70
2021/03/03 00:50:42;;;;;;;145.02;78.05;;;153.90;1664.00;;;;;;5073629;28;20365;-70
2021/03/03 00:53:12;;;;;;;138.55;75.68;;;153.90;1689.60;;;;;;5073644;28;20035;-70
2021/03/03 00:55:38;;;;;;;153.85;80.63;;;153.90;1664.00;;;;;;5073615;28;20020;-81
2021/03/03 00:58:04;;;;;;;155.77;82.88;;;153.80;1715.20;;;;;;5071870;28;20101;-80
2021/03/03 01:00:31;;;;;;;160.70;84.93;;;153.80;1689.60;;;;;;5072242;28;20056;-69
2021/03/03 01:03:34;;;;;;;166.55;87.38;;;153.80;1689.60;;;;;;5073462;28;20033;-70
2021/03/03 01:05:59;;;;;;;171.45;86.18;;;153.80;1664.00;;;;;;5073751;28;20542;-70
2021/03/03 01:08:25;;;;;;;162.20;83.03;;;153.80;1689.60;;;;;;5073489;28;20020;-81
2021/03/03 01:10:51;;;;;;;154.00;80.13;;;153.70;1715.20;;;;;;5073520;28;20052;-70
2021/03/03 01:13:17;;;;;;;164.00;83.45;;;128.90;1715.20;;;;;;5073349;28;20017;-70
2021/03/03 01:15:43;;;;;;;153.77;79.43;;;128.80;1740.80;;;;;;5073545;28;20021;-70
2021/03/03 01:18:09;;;;;;;146.20;79.63;;;128.60;1766.40;;;;;;5073448;28;20028;-69
2021/03/03 01:20:35;;;;;;;153.40;81.72;;;128.50;1792.00;;;;;;5073142;28;20519;-82
2021/03/03 01:23:01;;;;;;;154.00;83.07;;;128.40;1843.20;;;;;;5073440;28;20029;-74
2021/03/03 01:25:27;;;;;;;191.93;92.93;;;128.40;1817.60;;;;;;5073636;28;20071;-70
2021/03/03 01:27:53;;;;;;;167.73;86.30;;;128.40;1868.80;;;;;;5072449;28;20427;-70
2021/03/03 01:30:19;;;;;;;171.57;89.70;;;128.20;1868.80;;;;;;5073765;28;20036;-70
2021/03/03 01:32:45;;;;;;;149.17;78.27;;;128.20;1868.80;;;;;;5073174;28;20112;-83
2021/03/03 01:35:12;;;;;;;120.30;65.50;;;128.20;1817.60;;;;;;5074884;28;20218;-73
2021/03/03 01:37:38;;;;;;;127.38;68.97;;;128.20;1792.00;;;;;;5077383;28;20024;-70
2021/03/03 01:40:05;;;;;;;137.80;71.63;;;128.40;1766.40;;;;;;5076135;28;20355;-70
2021/03/03 01:42:32;;;;;;;133.55;70.00;;;128.40;1766.40;;;;;;5076015;28;20032;-78
2021/03/03 01:44:58;;;;;;;135.35;69.97;;;128.40;1766.40;;;;;;5077130;28;20071;-70
2021/03/03 01:47:24;;;;;;;148.07;77.38;;;128.40;1817.60;;;;;;5076999;28;20017;-69
2021/03/03 01:49:50;;;;;;;162.95;87.30;;;128.40;1792.00;;;;;;5077155;28;20032;-70
2021/03/03 01:52:17;;;;;;;150.13;81.10;;;128.40;1766.40;;;;;;5076978;28;20097;-70
2021/03/03 01:54:44;;;;;;;124.25;70.28;;;128.40;1792.00;;;;;;5075814;28;20366;-82
2021/03/03 01:57:11;;;;;;;115.33;60.47;;;128.40;1792.00;;;;;;5076851;28;20131;-82
2021/03/03 01:59:38;;;;;;;114.75;61.55;;;128.30;1792.00;;;;;;5076718;28;20032;-83
2021/03/03 02:02:04;;;;;;;119.23;63.37;;;128.40;1792.00;;;;;;5076817;28;20024;-83
2021/03/03 02:04:30;;;;;;;115.40;60.63;;;128.40;1766.40;;;;;;5076660;28;20062;-69
2021/03/03 02:07:16;;;;;;;122.03;64.05;;;128.30;1792.00;;;;;;5075488;28;20025;-69
2021/03/03 02:10:00;;;;;;;127.00;66.72;;;128.20;1868.80;;;;;;5075524;28;20056;-69
2021/03/03 02:12:41;;;;;;;115.97;63.97;;;128.00;1894.40;;;;;;5075456;28;20103;-83
2021/03/03 02:15:09;;;;;;;118.85;60.83;;;103.30;1792.00;;;;;;5076683;28;20030;-69
2021/03/03 02:17:37;;;;;;;108.90;58.70;;;128.00;1843.20;;;;;;5076571;28;20021;-70
2021/03/03 02:20:07;;;;;;;116.67;59.50;;;103.30;1843.20;;;;;;5076593;28;20055;-69
2021/03/03 02:22:42;;;;;;;109.45;56.90;;;103.20;1843.20;;;;;;5076690;28;20016;-69
2021/03/03 02:25:33;;;;;;;102.10;54.97;;;103.20;1894.40;;;;;;5076367;28;20033;-70
2021/03/03 02:28:06;;;;;;;107.23;54.83;;;103.10;1868.80;;;;;;5076662;28;20036;-70
2021/03/03 02:30:36;;;;;;;103.87;54.23;;;103.10;1843.20;;;;;;5076280;28;20107;-81
2021/03/03 02:33:02;;;;;;;106.07;56.10;;;103.10;1792.00;;;;;;5076081;28;20111;-69
2021/03/03 02:35:29;;;;;;;102.70;55.97;;;103.10;1868.80;;;;;;5076665;28;20024;-82
2021/03/03 02:37:58;;;;;;;106.60;56.33;;;103.10;1868.80;;;;;;5076267;28;20045;-69
2021/03/03 02:40:24;;;;;;;99.77;54.20;;;103.10;1894.40;;;;;;5076496;28;20078;-70
2021/03/03 02:42:52;;;;;;;99.57;55.33;;;103.00;1894.40;;;;;;5076146;28;20389;-69
2021/03/03 02:45:19;;;;;;;102.67;53.87;;;102.90;1868.80;;;;;;5076132;28;20020;-80
2021/03/03 02:47:46;;;;;;;103.10;53.10;;;102.90;1843.20;;;;;;5075531;28;20052;-82
2021/03/03 02:50:13;;;;;;;96.20;51.87;;;103.00;1817.60;;;;;;5075885;28;20384;-69
2021/03/03 02:52:56;;;;;;;98.57;52.83;;;103.00;1792.00;;;;;;5075982;28;20027;-69
2021/03/03 02:55:25;;;;;;;103.57;53.33;;;103.10;1792.00;;;;;;5075756;28;20481;-70
2021/03/03 02:57:52;;;;;;;95.90;51.13;;;103.00;1843.20;;;;;;5075491;28;20044;-69
2021/03/03 03:00:25;;;;;;;96.45;52.00;;;103.00;1843.20;;;;;;5075711;28;20021;-81
2021/03/03 03:03:20;;;;;;;104.93;52.57;;;103.00;1817.60;;;;;;5075854;28;20031;-78
2021/03/03 03:05:54;;;;;;;103.13;56.53;;;103.00;1868.80;;;;;;5061309;28;20032;-82
2021/03/03 03:08:21;;;;;;;;;;;103.00;1843.20;;;;;;5076269;28;20367;-81
2021/03/03 03:10:47;;;;;;;139.13;74.37;;;102.90;1843.20;;;;;;5075431;28;20053;-69
2021/03/03 03:13:16;;;;;;;120.17;66.53;;;102.90;1843.20;;;;;;5075617;28;20085;-69
2021/03/03 03:15:44;;;;;;;130.60;69.13;;;102.90;1843.20;;;;;;5075612;28;20025;-69
2021/03/03 03:18:24;;;;;;;128.63;68.67;;;102.90;1792.00;;;;;;5075482;28;20028;-82
2021/03/03 03:20:52;;;;;;;122.80;66.80;;;102.80;1792.00;;;;;;5075312;28;20111;-82
2021/03/03 03:23:21;;;;;;;103.97;55.37;;;102.90;1817.60;;;;;;5075445;28;20534;-81
2021/03/03 03:25:47;;;;;;;122.47;62.30;;;102.70;1868.80;;;;;;5075148;28;20016;-69
2021/03/03 03:28:13;;;;;;;131.10;66.47;;;102.70;1792.00;;;;;;5075176;28;20427;-69
2021/03/03 03:30:40;;;;;;;134.47;67.77;;;102.70;1792.00;;;;;;5075114;28;20017;-69
2021/03/03 03:33:06;;;;;;;118.00;63.90;;;102.70;1792.00;;;;;;5073840;28;20112;-70
2021/03/03 03:35:32;;;;;;;127.67;64.53;;;102.70;1843.20;;;;;;5075137;28;20033;-69
2021/03/03 03:38:00;;;;;;;119.03;61.97;;;102.70;1817.60;;;;;;5075161;28;20081;-70
2021/03/03 03:40:26;;;;;;;114.47;62.40;;;102.60;1894.40;;;;;;5074989;28;20059;-69
2021/03/03 03:42:56;;;;;;;124.20;62.53;;;102.60;1792.00;;;;;;5074898;28;20052;-69
2021/03/03 03:45:27;;;;;;;118.13;62.30;;;102.60;1868.80;;;;;;5075186;28;20024;-70
2021/03/03 03:47:55;;;;;;;119.73;63.30;;;102.60;1868.80;;;;;;5074805;28;20021;-70
2021/03/03 03:50:21;;;;;;;125.17;64.03;;;102.50;1843.20;;;;;;5073293;28;20572;-76
2021/03/03 03:52:57;;;;;;;119.90;64.77;;;102.50;1817.60;;;;;;5074927;28;20373;-83
2021/03/03 03:55:34;;;;;;;121.43;63.40;;;102.60;1894.40;;;;;;5075196;28;20013;-69
2021/03/03 03:58:00;;;;;;;121.27;62.43;;;102.50;1920.00;;;;;;5073720;28;20051;-69
2021/03/03 04:00:27;;;;;;;117.43;60.70;;;102.40;1920.00;;;;;;5074497;28;20079;-69
2021/03/03 04:02:53;;;;;;;122.13;63.83;;;102.40;1894.40;;;;;;5074373;28;20028;-70
2021/03/03 04:05:20;;;;;;;122.80;62.67;;;102.40;1843.20;;;;;;5074396;28;20029;-82
2021/03/03 04:07:46;;;;;;;119.03;63.03;;;102.40;1894.40;;;;;;5074313;28;20017;-82
2021/03/03 04:10:18;;;;;;;119.93;62.43;;;102.40;1894.40;;;;;;5074532;28;20115;-69
2021/03/03 04:12:44;;;;;;;114.67;60.53;;;102.50;1843.20;;;;;;5074974;28;20035;-69
2021/03/03 04:15:11;;;;;;;116.50;60.20;;;102.50;1843.20;;;;;;5085447;28;20385;-70
2021/03/03 04:17:38;;;;;;;119.77;62.80;;;102.50;1894.40;;;;;;5074121;28;20025;-83
2021/03/03 04:20:09;;;;;;;121.00;63.47;;;102.40;1894.40;;;;;;5074032;28;20112;-70
2021/03/03 04:22:35;;;;;;;114.93;62.17;;;102.40;1868.80;;;;;;5074341;28;20384;-82
2021/03/03 04:25:03;;;;;;;114.37;60.73;;;102.40;1868.80;;;;;;5074558;28;20115;-69
2021/03/03 04:27:29;;;;;;;140.50;72.87;;;102.40;1843.20;;;;;;5074063;28;20028;-70
2021/03/03 04:29:55;;;;;;;154.43;81.53;;;102.40;1817.60;;;;;;5073991;28;20552;-83
2021/03/03 04:32:21;;;;;;;222.67;113.90;;;102.40;1868.80;;;;;;5073990;28;20032;-73
2021/03/03 04:34:47;;;;;;;218.50;112.00;;;102.40;1817.60;;;;;;5074207;28;20024;-69
2021/03/03 04:37:13;;;;;;;187.47;97.93;;;102.50;1817.60;;;;;;5073935;28;20056;-70
2021/03/03 04:39:39;;;;;;;162.03;82.43;;;102.50;1817.60;;;;;;5073762;28;20528;-70
2021/03/03 04:42:06;;;;;;;164.03;82.77;;;102.50;1843.20;;;;;;5074095;28;20025;-71
2021/03/03 04:44:33;;;;;;;171.73;86.33;;;102.50;1843.20;;;;;;5074222;28;20044;-70
2021/03/03 04:46:59;;;;;;;158.10;81.47;;;102.50;1817.60;;;;;;5073736;28;20060;-83
2021/03/03 04:49:26;;;;;;;155.67;81.07;;;102.40;1894.40;;;;;;5073793;28;20058;-69
2021/03/03 04:51:52;;;;;;;134.37;68.83;;;102.40;1843.20;;;;;;5073905;28;20040;-70
2021/03/03 04:54:18;;;;;;;146.50;73.83;;;102.40;1920.00;;;;;;5073962;28;20370;-72
2021/03/03 04:56:44;;;;;;;143.10;72.97;;;77.70;1945.60;;;;;;5073632;28;20443;-70
2021/03/03 04:59:10;;;;;;;130.00;69.50;;;77.70;1817.60;;;;;;5073594;28;20036;-69
2021/03/03 05:01:36;;;;;;;130.33;68.93;;;77.70;1945.60;;;;;;5073595;28;20031;-69
2021/03/03 05:04:02;;;;;;;125.30;66.90;;;77.60;1971.20;;;;;;5073663;28;20025;-70
2021/03/03 05:06:28;;;;;;;147.57;75.80;;;77.60;1971.20;;;;;;5073840;28;20070;-70
2021/03/03 05:08:54;;;;;;;124.53;66.10;;;77.60;1996.80;;;;;;5073532;28;20539;-80
2021/03/03 05:11:22;;;;;;;129.80;69.90;;;77.60;1945.60;;;;;;5073439;28;20199;-83
2021/03/03 05:13:49;;;;;;;124.13;67.23;;;77.60;1894.40;;;;;;5073328;28;20032;-69
2021/03/03 05:16:14;;;;;;;129.83;67.10;;;77.60;1894.40;;;;;;5073724;28;20027;-70
2021/03/03 05:18:40;;;;;;;125.23;67.00;;;77.60;1945.60;;;;;;5073714;28;20123;-84
2021/03/03 05:21:07;;;;;;;119.80;64.20;;;77.60;1920.00;;;;;;5073502;28;20025;-70
2021/03/03 05:23:35;;;;;;;128.27;67.27;;;77.60;1920.00;;;;;;5073455;28;20033;-70
2021/03/03 05:26:02;;;;;;;136.33;72.87;;;77.60;1996.80;;;;;;5073202;28;20037;-69
2021/03/03 05:28:29;;;;;;;126.70;66.77;;;77.50;1945.60;;;;;;5073423;28;20020;-70
2021/03/03 05:30:55;;;;;;;126.30;67.47;;;77.50;1971.20;;;;;;5073429;28;20116;-69
2021/03/03 05:33:23;;;;;;;137.13;70.37;;;77.40;2048.00;;;;;;5073614;28;20029;-74
2021/03/03 05:35:49;;;;;;;143.00;73.03;;;77.40;2048.00;;;;;;5072212;28;20035;-70
2021/03/03 05:38:15;;;;;;;130.23;69.47;;;77.40;2022.40;;;;;;5073743;28;20093;-70
2021/03/03 05:40:43;;;;;;;136.67;72.53;;;77.40;2022.40;;;;;;5072049;28;20033;-70
2021/03/03 05:43:09;;;;;;;135.93;71.27;;;77.40;2022.40;;;;;;5073242;28;20027;-69
2021/03/03 05:45:36;;;;;;;171.10;85.47;;;77.40;2048.00;;;;;;5073429;28;20105;-70
2021/03/03 05:48:03;;;;;;;188.53;93.50;;;77.30;2048.00;;;;;;5073509;28;20380;-69
2021/03/03 05:50:32;;;;;;;169.73;86.63;;;77.30;2048.00;;;;;;5073196;28;20074;-69
2021/03/03 05:52:58;;;;;;;170.10;86.80;;;77.30;2022.40;;;;;;5074565;28;20013;-84
2021/03/03 05:55:24;;;;;;;175.17;91.77;;;77.40;1996.80;;;;;;5083721;28;20024;-70
2021/03/03 05:57:51;;;;;;;166.20;92.70;;;77.40;2073.60;;;;;;5072911;28;20132;-70
2021/03/03 06:00:17;;;;;;;174.63;92.77;;;77.40;2073.60;;;;;;5071737;28;20388;-70
2021/03/03 06:02:45;;;;;;;158.37;90.20;;;77.40;2099.20;;;;;;5073075;28;20012;-69
2021/03/03 06:05:12;;;;;;;144.27;81.43;;;77.50;2073.60;;;;;;5073082;28;20054;-73
2021/03/03 06:07:39;;;;;;;139.17;79.73;;;77.50;2048.00;;;;;;5073266;28;20021;-83
2021/03/03 06:10:06;;;;;;;159.73;83.40;;;77.50;2048.00;;;;;;5073188;28;20058;-70
2021/03/03 06:12:32;;;;;;;148.97;83.87;;;77.70;2073.60;;;;;;5073018;28;20024;-70
2021/03/03 06:14:58;;;;;;;135.70;80.13;;;77.60;2099.20;;;;;;5073048;28;20021;-84
2021/03/03 06:17:25;;;;;;;143.30;80.83;;;77.60;2073.60;;;;;;5072887;28;20062;-70
2021/03/03 06:19:51;;;;;;;139.63;82.60;;;77.60;2099.20;;;;;;5073099;28;20060;-69
2021/03/03 06:22:25;;;;;;;138.83;84.33;;;77.70;2099.20;;;;;;5073164;28;20059;-70
2021/03/03 06:24:54;;;;;;;151.43;86.27;;;102.40;2073.60;;;;;;5076469;28;20485;-69
2021/03/03 06:27:24;;;;;;;147.13;85.70;;;102.40;2022.40;;;;;;5076247;28;20028;-83
2021/03/03 06:30:05;;;;;;;151.97;85.70;;;102.50;2022.40;;;;;;5076311;28;20031;-69
2021/03/03 06:32:49;;;;;;;150.87;87.80;;;102.60;2073.60;;;;;;5076176;28;20025;-69
2021/03/03 06:35:15;;;;;;;144.20;84.47;;;102.60;2073.60;;;;;;5076113;28;20017;-70
2021/03/03 06:37:54;;;;;;;154.57;86.73;;;102.70;2048.00;;;;;;5076449;28;20036;-70
2021/03/03 06:40:20;;;;;;;155.00;85.90;;;102.80;2048.00;;;;;;5076172;28;20519;-70
2021/03/03 06:42:46;;;;;;;150.97;86.83;;;102.90;2022.40;;;;;;5075999;28;20024;-70
2021/03/03 06:45:29;;;;;;;158.23;93.40;;;103.00;2022.40;;;;;;5076380;28;20025;-70
2021/03/03 06:47:56;;;;;;;155.37;90.93;;;103.00;2022.40;;;;;;5074636;28;20036;-70
2021/03/03 06:50:32;;;;;;;162.47;92.60;;;103.10;2048.00;;;;;;5075860;28;20020;-71
2021/03/03 06:52:58;;;;;;;168.03;96.27;;;103.20;2022.40;;;;;;5076066;28;20142;-81
2021/03/03 06:55:24;;;;;;;164.47;91.23;;;103.30;2073.60;;;;;;5075798;28;20028;-79
2021/03/03 06:57:49;;;;;;;140.57;78.13;;;128.00;2073.60;;;;;;5082213;28;20052;-81
2021/03/03 07:00:36;;;;;;;152.90;84.60;;;128.10;2022.40;;;;;;5090878;28;20040;-80
2021/03/03 07:03:28;;;;;;;162.30;88.63;;;128.10;2022.40;;;;;;5084980;28;20043;-70
2021/03/03 07:05:55;;;;;;;191.85;97.60;;;128.30;1996.80;;;;;;5095974;28;20028;-80
2021/03/03 07:08:21;;;;;;;180.40;89.22;;;128.40;2048.00;;;;;;5086156;28;20056;-80
2021/03/03 07:10:48;;;;;;;157.18;82.90;;;128.60;2073.60;;;;;;5075324;28;20060;-80
2021/03/03 07:13:14;;;;;;;148.43;78.33;;;128.80;1996.80;;;;;;5075403;28;20055;-80
2021/03/03 07:15:40;;;;;;;132.25;68.93;;;153.60;1996.80;;;;;;5075395;28;20033;-70
2021/03/03 07:18:35;;;;;;;116.43;65.70;;;153.90;2022.40;;;;;;5080437;28;20047;-79
2021/03/03 07:21:02;;;;;;;139.50;71.07;;;154.30;1971.20;;;;;;5095459;28;20028;-74
2021/03/03 07:23:49;;;;;;;98.13;57.10;;;179.30;1843.20;;;;;;5095508;28;20035;-78
2021/03/03 07:26:17;;;;;;;96.55;58.60;;;180.10;1792.00;;;;;;5096017;28;20024;-81
2021/03/03 07:28:44;;;;;;;87.07;55.45;;;230.60;1664.00;;;;;;5090700;28;20028;-79
2021/03/03 07:31:12;;;;;;;87.38;54.50;;;256.90;1459.20;;;;;;5092575;28;20020;-81
2021/03/03 07:33:38;;;;;;;83.25;57.92;;;307.60;1382.40;;;;;;5093949;28;20052;-69
2021/03/03 07:36:06;;;;;;;90.22;60.00;;;333.20;1331.20;;;;;;5094189;28;20020;-80
2021/03/03 07:38:36;;;;;;;99.38;68.68;;;358.90;1228.80;;;;;;5091361;28;20020;-80
2021/03/03 07:41:05;;;;;;;120.40;76.68;;;384.50;1177.60;;;;;;5093883;28;20023;-73
2021/03/03 07:43:31;;;;;;;88.30;58.63;;;410.00;1126.40;;;;;;5092279;28;20035;-72
2021/03/03 07:46:02;;;;;;;90.32;58.67;;;435.20;1100.80;;;;;;5093399;28;20102;-68
2021/03/03 07:48:29;;;;;;;64.18;44.72;;;435.70;1075.20;;;;;;5092187;28;20024;-72
2021/03/03 07:50:56;;;;;;;60.20;43.22;;;436.10;1024.00;;;;;;5093557;28;20051;-72
2021/03/03 07:53:22;;;;;;;54.58;39.83;;;461.00;1024.00;;;;;;5093397;28;20028;-68
2021/03/03 07:55:48;;;;;;;56.55;40.95;;;461.40;1024.00;;;;;;5091645;28;20028;-71
2021/03/03 07:58:14;;;;;;;46.13;34.38;;;461.60;998.40;;;;;;5091177;28;20481;-72
2021/03/03 08:00:43;;;;;;;49.75;36.15;;;486.50;972.80;;;;;;5093307;28;20099;-73
2021/03/03 08:03:09;;;;;;;47.53;33.47;;;486.80;972.80;;;;;;5093171;28;20021;-72
2021/03/03 08:05:37;;;;;;;53.28;34.58;;;486.80;972.80;;;;;;5093187;28;20016;-72
2021/03/03 08:11:00;;;;;;;66.68;47.40;;;486.60;998.40;;;;;;5093971;28;20024;-68
2021/03/03 08:13:28;;;;;;;69.88;38.28;;;461.60;998.40;;;;;;5085941;28;20032;-72
2021/03/03 08:15:59;;;;;;;61.20;32.90;;;461.30;1049.60;;;;;;5082548;28;20028;-73
2021/03/03 08:18:28;;;;;;;49.45;31.90;;;460.80;1075.20;;;;;;5085428;28;20066;-72
2021/03/03 08:20:56;;;;;;;47.28;32.22;;;435.90;1075.20;;;;;;5094181;28;20488;-72
2021/03/03 08:23:34;;;;;;;50.10;32.78;;;435.60;1100.80;;;;;;5094154;28;20027;-68
2021/03/03 08:26:06;;;;;;;55.50;34.97;;;435.50;1075.20;;;;;;5080020;28;20561;-73
2021/03/03 08:28:38;;;;;;;52.10;34.97;;;435.30;1100.80;;;;;;5079523;28;20027;-68
2021/03/03 08:31:07;;;;;;;65.35;32.65;;;410.10;1152.00;;;;;;5094058;28;20024;-68
2021/03/03 08:33:34;;;;;;;49.13;32.70;;;409.80;1152.00;;;;;;5088622;28;20028;-68
2021/03/03 08:36:00;;;;;;;47.83;29.25;;;410.00;1203.20;;;;;;5073839;28;20023;-72
2021/03/03 08:38:26;;;;;;;101.95;31.20;;;410.30;1126.40;;;;;;5073918;28;20436;-69
2021/03/03 08:40:52;;;;;;;49.17;28.52;;;410.10;1126.40;;;;;;5075128;28;20082;-69
2021/03/03 08:43:36;;;;;;;508.50;72.40;;;410.10;1126.40;;;;;;5087009;28;20020;-74
2021/03/03 08:46:17;;;;;;;74.13;27.98;;;410.30;1126.40;;;;;;5080693;28;20178;-70
2021/03/03 08:48:44;;;;;;;44.75;25.58;;;410.40;1126.40;;;;;;5073674;28;20473;-69
2021/03/03 08:51:30;;;;;;;48.83;25.25;;;410.00;1152.00;;;;;;5081150;28;20071;-69
2021/03/03 08:54:01;;;;;;;84.53;45.10;;;410.10;1126.40;;;;;;5079604;28;20099;-69
2021/03/03 08:56:46;;;;;;;43.25;25.33;;;435.20;1152.00;;;;;;5083597;28;20073;-71
2021/03/03 08:59:39;;;;;;;41.88;26.88;;;435.60;1100.80;;;;;;5091617;28;20076;-71
2021/03/03 09:02:16;;;;;;;40.35;27.00;;;436.10;1075.20;;;;;;5091605;28;20472;-71
2021/03/03 09:04:50;;;;;;;55.60;34.15;;;461.50;947.20;;;;;;5091898;28;20031;-71
2021/03/03 09:07:21;;;;;;;48.75;25.63;;;486.40;998.40;;;;;;5091893;28;20024;-71
2021/03/03 09:09:51;;;;;;;38.75;24.50;;;461.10;998.40;;;;;;5090358;28;20040;-71
2021/03/03 09:12:19;;;;;;;57.95;27.33;;;436.00;1049.60;;;;;;5091792;28;20050;-71
2021/03/03 09:14:47;;;;;;;126.00;29.60;;;461.00;998.40;;;;;;5091792;28;20125;-70
2021/03/03 09:17:15;;;;;;;56.17;27.50;;;461.10;998.40;;;;;;5093252;28;20095;-69
2021/03/03 09:19:42;;;;;;;80.97;26.98;;;486.50;1024.00;;;;;;5093516;28;20074;-72
2021/03/03 09:22:23;;;;;;;52.35;24.00;;;486.60;921.60;;;;;;5093532;28;20024;-71
2021/03/03 09:24:51;;;;;;;50.05;24.80;;;486.80;947.20;;;;;;5093818;28;20032;-70
2021/03/03 09:27:19;;;;;;;31.52;20.23;;;486.50;921.60;;;;;;5093751;28;20016;-70
2021/03/03 09:29:45;;;;;;;32.03;20.30;;;461.60;947.20;;;;;;5093384;28;20028;-70
2021/03/03 09:32:21;;;;;;;30.98;18.00;;;461.30;947.20;;;;;;5093430;28;20430;-70
2021/03/03 09:34:55;;;;;;;32.05;18.50;;;461.20;947.20;;;;;;5093346;28;20020;-71
2021/03/03 09:37:22;;;;;;;38.72;17.10;;;436.00;972.80;;;;;;5093458;28;20023;-70
2021/03/03 09:39:56;;;;;;;36.88;17.67;;;435.60;1024.00;;;;;;5093333;28;20017;-70
2021/03/03 09:42:22;;;;;;;38.42;17.05;;;410.50;1049.60;;;;;;5093611;28;20024;-70
2021/03/03 09:44:50;;;;;;;48.75;16.88;;;410.10;1100.80;;;;;;5093222;28;20051;-70
2021/03/03 09:47:38;;;;;;;34.75;16.13;;;409.80;1100.80;;;;;;5093536;28;20020;-70
2021/03/03 09:50:07;;;;;;;38.78;16.40;;;409.60;1126.40;;;;;;5093080;28;20115;-70
2021/03/03 09:52:40;;;;;;;33.25;16.25;;;384.70;1126.40;;;;;;5093133;28;20376;-70
2021/03/03 09:55:12;;;;;;;35.78;16.25;;;384.70;1126.40;;;;;;5093441;28;20026;-70
2021/03/03 09:57:39;;;;;;;29.27;17.67;;;384.70;1126.40;;;;;;5095178;28;20036;-70
2021/03/03 10:00:11;;;;;;;38.83;17.55;;;384.70;1177.60;;;;;;5097270;28;20028;-70
2021/03/03 10:02:40;;;;;;;30.35;14.95;;;384.70;1126.40;;;;;;5097038;28;20036;-70
2021/03/03 10:05:07;;;;;;;32.90;13.95;;;384.40;1100.80;;;;;;5095595;28;20465;-70
2021/03/03 10:07:33;;;;;;;26.58;13.38;;;384.40;1126.40;;;;;;5097112;28;20052;-70
2021/03/03 10:10:01;;;;;;;29.05;13.07;;;384.40;1152.00;;;;;;5096682;28;20046;-70
2021/03/03 10:12:37;;;;;;;43.00;16.08;;;384.50;1100.80;;;;;;5097043;28;20016;-70
2021/03/03 10:15:11;;;;;;;35.35;16.25;;;384.60;1100.80;;;;;;5096757;28;20108;-70
2021/03/03 10:17:48;;;;;;;32.90;15.45;;;384.60;1100.80;;;;;;5096727;28;20035;-70
2021/03/03 10:20:31;;;;;;;31.13;13.18;;;384.60;1100.80;;;;;;5096699;28;20024;-71
2021/03/03 10:23:04;;;;;;;55.73;13.97;;;384.70;1100.80;;;;;;5096777;28;20020;-70
2021/03/03 10:25:33;;;;;;;31.25;12.10;;;384.70;1075.20;;;;;;5096811;28;20020;-70
2021/03/03 10:28:10;;;;;;;27.25;12.48;;;384.80;1100.80;;;;;;5096472;28;20070;-71
2021/03/03 10:30:39;;;;;;;24.85;12.77;;;384.70;1049.60;;;;;;5096449;28;20115;-70
2021/03/03 10:33:06;;;;;;;18.92;11.48;;;384.70;1075.20;;;;;;5096360;28;20016;-71
2021/03/03 10:35:44;;;;;;;24.95;14.90;;;384.70;1075.20;;;;;;5095021;28;20035;-70
2021/03/03 10:38:11;;;;;;;23.95;13.07;;;384.70;1075.20;;;;;;5096283;28;20028;-70
2021/03/03 10:40:42;;;;;;;26.15;12.68;;;384.70;1075.20;;;;;;5096524;28;20016;-70
2021/03/03 10:43:16;;;;;;;30.27;15.10;;;384.70;1075.20;;;;;;5096157;28;20027;-69
2021/03/03 10:45:44;;;;;;;30.60;16.02;;;384.70;1100.80;;;;;;5096207;28;20499;-70
2021/03/03 10:48:29;;;;;;;18.33;12.30;;;384.50;1075.20;;;;;;5096020;28;20031;-70
2021/03/03 10:50:58;;;;;;;17.80;11.23;;;384.50;1075.20;;;;;;5096072;28;20115;-70
2021/03/03 10:53:24;;;;;;;33.83;12.70;;;384.50;1075.20;;;;;;5095969;28;20032;-70
2021/03/03 10:55:50;;;;;;;21.77;11.23;;;384.50;1075.20;;;;;;5096461;28;20028;-70
2021/03/03 10:58:19;;;;;;;28.30;13.55;;;384.50;1075.20;;;;;;5095771;28;20066;-70
2021/03/03 11:01:02;;;;;;;14.10;9.80;;;384.70;1100.80;;;;;;5095837;28;20082;-70
2021/03/03 11:03:30;;;;;;;21.95;12.07;;;384.70;1075.20;;;;;;5077207;28;20025;-70
2021/03/03 11:05:58;;;;;;;23.85;12.80;;;384.80;1049.60;;;;;;5087616;28;20020;-70
2021/03/03 11:08:25;;;;;;;24.13;12.52;;;384.80;1049.60;;;;;;5086577;28;20036;-70
2021/03/03 11:10:52;;;;;;;27.10;14.07;;;384.90;1075.20;;;;;;5095477;28;20040;-82
2021/03/03 11:13:18;;;;;;;20.88;11.13;;;409.70;1049.60;;;;;;5085591;28;20021;-70
2021/03/03 11:15:45;;;;;;;79.32;50.38;;;409.70;998.40;;;;;;5075253;28;20052;-70
2021/03/03 11:18:11;;;;;;;19.35;12.18;;;409.80;1049.60;;;;;;5078474;28;20518;-70
2021/03/03 11:20:39;;;;;;;14.25;9.88;;;409.80;998.40;;;;;;5075080;28;20035;-70
2021/03/03 11:23:05;;;;;;;17.70;12.25;;;409.80;998.40;;;;;;5084430;28;20055;-70
2021/03/03 11:25:31;;;;;;;42.55;25.83;;;409.90;998.40;;;;;;5075543;28;20033;-74
2021/03/03 11:27:58;;;;;;;18.85;13.70;;;410.00;998.40;;;;;;5090485;28;20028;-70
2021/03/03 11:30:24;;;;;;;17.92;11.95;;;410.00;947.20;;;;;;5077747;28;20036;-70
2021/03/03 11:32:51;;;;;;;37.85;11.95;;;409.90;972.80;;;;;;5078223;28;20027;-70
2021/03/03 11:35:17;;;;;;;20.95;14.23;;;409.90;1049.60;;;;;;5090786;28;20415;-70
2021/03/03 11:37:43;;;;;;;13.32;10.15;;;409.90;1024.00;;;;;;5093717;28;20430;-70
2021/03/03 11:40:10;;;;;;;60.10;13.13;;;410.00;1024.00;;;;;;5094838;28;20020;-70
2021/03/03 11:42:36;;;;;;;313.70;39.38;;;409.90;998.40;;;;;;5091084;28;20024;-70
2021/03/03 11:45:02;;;;;;;46.35;13.43;;;410.00;998.40;;;;;;5074697;28;20029;-70
2021/03/03 11:47:28;;;;;;;17.80;10.32;;;410.00;947.20;;;;;;5074479;28;20035;-70
2021/03/03 11:49:54;;;;;;;20.70;12.55;;;410.10;998.40;;;;;;5074489;28;20115;-71
2021/03/03 11:52:20;;;;;;;52.15;13.35;;;410.10;1024.00;;;;;;5074720;28;20059;-84
2021/03/03 11:54:46;;;;;;;15.95;8.95;;;410.20;998.40;;;;;;5074689;28;20085;-70
2021/03/03 11:57:12;;;;;;;81.05;14.18;;;410.20;921.60;;;;;;5074234;28;20048;-71
2021/03/03 11:59:38;;;;;;;40.40;12.18;;;410.30;947.20;;;;;;5074631;28;20473;-70
2021/03/03 12:02:04;;;;;;;41.90;11.32;;;410.40;947.20;;;;;;5074213;28;20028;-70
2021/03/03 12:04:30;;;;;;;65.75;15.23;;;410.50;947.20;;;;;;5094569;28;20062;-70
2021/03/03 12:06:55;;;;;;;37.30;10.98;;;435.20;947.20;;;;;;5093834;28;20028;-70
2021/03/03 12:09:21;;;;;;;37.72;11.60;;;410.50;998.40;;;;;;5093597;28;20431;-70